createdAt,value
2016-08-24T00:00:29.840Z,92.82
2016-08-24T00:01:38.229Z,93.03
2016-08-24T00:02:32.473Z,92.61
2016-08-24T00:03:26.063Z,92.61
2016-08-24T00:04:30.916Z,92.58
2016-08-24T00:05:30.565Z,92.59
2016-08-24T00:06:34.552Z,92.52
2016-08-24T00:07:26.674Z,92.81
2016-08-24T00:08:54.813Z,92.91
2016-08-24T00:09:24.652Z,93.10
2016-08-24T00:10:31.379Z,93.26
2016-08-24T00:11:23.459Z,93.06
2016-08-24T00:12:29.963Z,93.04
2016-08-24T00:14:28.443Z,93.10
2016-08-24T00:15:26.552Z,93.13
2016-08-24T00:16:25.613Z,92.91
2016-08-24T00:17:24.062Z,92.73
2016-08-24T00:18:32.221Z,92.58
2016-08-24T00:19:33.992Z,92.73
2016-08-24T00:20:39.476Z,92.59
2016-08-24T00:21:27.787Z,92.54
2016-08-24T00:22:34.970Z,92.62
2016-08-24T00:23:24.015Z,93.04
2016-08-24T00:24:30.962Z,92.86
2016-08-24T00:25:38.506Z,92.95
2016-08-24T00:26:28.194Z,92.91
2016-08-24T00:27:27.261Z,93.05
2016-08-24T00:28:33.882Z,93.36
2016-08-24T00:29:38.984Z,93.50
2016-08-24T00:30:32.417Z,93.67
2016-08-24T00:31:17.747Z,93.35
2016-08-24T00:32:34.951Z,93.03
2016-08-24T00:33:27.293Z,93.07
2016-08-24T00:34:20.598Z,93.01
2016-08-24T00:35:44.996Z,93.12
2016-08-24T00:36:23.237Z,93.14
2016-08-24T00:37:29.941Z,93.13
2016-08-24T00:39:57.041Z,93.68
2016-08-24T00:40:24.069Z,93.81
2016-08-24T00:41:25.970Z,94.12
2016-08-24T00:42:31.338Z,94.12
2016-08-24T00:43:23.236Z,94.05
2016-08-24T00:44:34.282Z,93.78
2016-08-24T00:45:32.779Z,93.74
2016-08-24T00:46:24.424Z,93.61
2016-08-24T00:47:34.270Z,93.44
2016-08-24T00:48:46.406Z,93.52
2016-08-24T00:49:28.992Z,93.62
2016-08-24T00:50:26.037Z,93.27
2016-08-24T00:51:26.911Z,93.13
2016-08-24T00:52:40.264Z,93.08
2016-08-24T00:53:34.282Z,93.04
2016-08-24T00:54:34.426Z,92.87
2016-08-24T00:55:31.586Z,92.96
2016-08-24T00:56:32.794Z,93.50
2016-08-24T00:57:27.848Z,93.28
2016-08-24T00:58:30.895Z,93.13
2016-08-24T00:59:20.662Z,92.98
2016-08-24T01:00:39.820Z,93.19
2016-08-24T01:01:34.215Z,93.30
2016-08-24T01:02:23.284Z,93.27
2016-08-24T01:03:33.853Z,93.12
2016-08-24T01:04:19.115Z,92.89
2016-08-24T01:06:24.049Z,92.93
2016-08-24T01:08:35.083Z,92.78
2016-08-24T01:09:40.069Z,92.84
2016-08-24T01:10:33.772Z,92.92
2016-08-24T01:11:40.084Z,92.91
2016-08-24T01:12:44.093Z,93.08
2016-08-24T01:13:28.586Z,93.08
2016-08-24T01:15:44.820Z,93.43
2016-08-24T01:16:45.653Z,93.79
2016-08-24T01:17:32.988Z,93.60
2016-08-24T01:18:30.580Z,93.72
2016-08-24T01:19:33.047Z,93.63
2016-08-24T01:20:38.372Z,94.19
2016-08-24T01:22:30.071Z,94.16
2016-08-24T01:23:27.793Z,93.90
2016-08-24T01:24:34.947Z,93.81
2016-08-24T01:25:43.224Z,93.60
2016-08-24T01:26:23.059Z,93.70
2016-08-24T01:27:32.288Z,93.51
2016-08-24T01:29:22.587Z,93.74
2016-08-24T01:30:28.511Z,93.51
2016-08-24T01:31:33.813Z,93.49
2016-08-24T01:32:19.857Z,93.55
2016-08-24T01:33:33.404Z,93.51
2016-08-24T01:34:32.664Z,93.40
2016-08-24T01:35:27.274Z,93.25
2016-08-24T01:37:39.960Z,93.87
2016-08-24T01:39:19.225Z,93.95
2016-08-24T01:40:24.295Z,93.88
2016-08-24T01:42:33.738Z,94.38
2016-08-24T01:43:32.804Z,93.98
2016-08-24T01:44:24.005Z,94.06
2016-08-24T01:45:23.697Z,93.99
2016-08-24T01:46:23.618Z,93.98
2016-08-24T01:47:33.466Z,93.89
2016-08-24T01:48:33.831Z,94.14
2016-08-24T01:49:33.010Z,94.49
2016-08-24T01:50:27.498Z,94.83
2016-08-24T01:51:49.890Z,94.45
2016-08-24T01:52:23.744Z,94.45
2016-08-24T01:53:31.789Z,94.27
2016-08-24T01:54:49.879Z,94.10
2016-08-24T01:56:20.704Z,94.44
2016-08-24T01:57:34.007Z,94.53
2016-08-24T01:58:31.457Z,94.26
2016-08-24T02:00:27.870Z,94.29
2016-08-24T02:01:33.740Z,94.28
2016-08-24T02:02:28.675Z,94.41
2016-08-24T02:03:25.611Z,94.19
2016-08-24T02:04:32.633Z,94.28
2016-08-24T02:05:33.596Z,94.43
2016-08-24T02:06:33.962Z,94.24
2016-08-24T02:07:24.888Z,94.56
2016-08-24T02:08:34.450Z,94.85
2016-08-24T02:09:34.469Z,94.78
2016-08-24T02:10:33.114Z,94.73
2016-08-24T02:11:22.752Z,94.86
2016-08-24T02:12:40.420Z,94.79
2016-08-24T02:13:24.732Z,94.54
2016-08-24T02:14:34.460Z,94.45
2016-08-24T02:15:29.273Z,94.45
2016-08-24T02:16:36.061Z,94.77
2016-08-24T02:17:33.027Z,95.11
2016-08-24T02:18:29.981Z,95.07
2016-08-24T02:19:24.359Z,95.48
2016-08-24T02:20:32.670Z,95.60
2016-08-24T02:21:30.442Z,95.53
2016-08-24T02:22:39.982Z,95.79
2016-08-24T02:23:25.439Z,95.60
2016-08-24T02:24:34.974Z,95.21
2016-08-24T02:25:28.504Z,95.21
2016-08-24T02:26:38.711Z,95.21
2016-08-24T02:27:31.680Z,95.29
2016-08-24T02:28:25.260Z,95.06
2016-08-24T02:29:20.638Z,94.86
2016-08-24T02:30:31.120Z,94.62
2016-08-24T02:32:09.507Z,94.46
2016-08-24T02:32:21.550Z,94.46
2016-08-24T02:33:34.608Z,94.58
2016-08-24T02:34:34.029Z,95.05
2016-08-24T02:36:35.195Z,94.92
2016-08-24T02:37:51.368Z,94.80
2016-08-24T02:38:29.624Z,94.78
2016-08-24T02:39:34.842Z,95.34
2016-08-24T02:40:25.345Z,94.70
2016-08-24T02:41:33.861Z,94.82
2016-08-24T02:42:27.405Z,94.84
2016-08-24T02:43:34.803Z,95.01
2016-08-24T02:44:25.594Z,95.36
2016-08-24T02:45:33.490Z,95.15
2016-08-24T02:46:33.354Z,95.39
2016-08-24T02:47:41.631Z,94.98
2016-08-24T02:48:32.441Z,94.78
2016-08-24T02:49:37.708Z,94.85
2016-08-24T02:50:28.205Z,94.69
2016-08-24T02:51:33.454Z,94.92
2016-08-24T02:52:25.749Z,95.46
2016-08-24T02:53:26.254Z,95.19
2016-08-24T02:54:30.635Z,95.12
2016-08-24T02:55:25.726Z,95.10
2016-08-24T02:56:24.921Z,95.05
2016-08-24T02:57:23.799Z,95.23
2016-08-24T02:58:32.566Z,95.07
2016-08-24T02:59:32.887Z,95.52
2016-08-24T03:01:34.834Z,95.38
2016-08-24T03:02:30.223Z,95.51
2016-08-24T03:03:32.046Z,95.11
2016-08-24T03:04:25.055Z,95.31
2016-08-24T03:05:24.492Z,95.27
2016-08-24T03:06:24.761Z,95.49
2016-08-24T03:07:23.316Z,95.42
2016-08-24T03:09:31.608Z,95.46
2016-08-24T03:10:30.415Z,95.51
2016-08-24T03:11:27.007Z,95.48
2016-08-24T03:12:26.674Z,95.28
2016-08-24T03:13:30.227Z,94.89
2016-08-24T03:14:26.540Z,94.92
2016-08-24T03:15:19.836Z,95.04
2016-08-24T03:16:26.337Z,95.09
2016-08-24T03:17:30.742Z,95.28
2016-08-24T03:18:36.096Z,95.37
2016-08-24T03:19:32.966Z,95.36
2016-08-24T03:20:31.896Z,95.38
2016-08-24T03:21:32.630Z,95.51
2016-08-24T03:22:26.862Z,95.39
2016-08-24T03:23:32.639Z,95.62
2016-08-24T03:24:30.514Z,96.00
2016-08-24T03:25:36.906Z,96.01
2016-08-24T03:26:40.809Z,95.85
2016-08-24T03:27:43.389Z,95.75
2016-08-24T03:28:27.801Z,95.95
2016-08-24T03:29:28.717Z,95.84
2016-08-24T03:30:48.241Z,95.72
2016-08-24T03:31:33.377Z,95.77
2016-08-24T03:32:23.715Z,95.46
2016-08-24T03:33:28.263Z,95.15
2016-08-24T03:34:33.871Z,95.47
2016-08-24T03:35:32.989Z,95.27
2016-08-24T03:36:39.947Z,95.68
2016-08-24T03:37:34.975Z,95.44
2016-08-24T03:38:33.292Z,95.54
2016-08-24T03:39:32.494Z,95.65
2016-08-24T03:40:24.360Z,95.71
2016-08-24T03:41:39.507Z,95.72
2016-08-24T03:42:24.125Z,95.61
2016-08-24T03:43:36.443Z,95.63
2016-08-24T03:44:26.525Z,95.61
2016-08-24T03:45:26.269Z,95.57
2016-08-24T03:46:19.461Z,95.86
2016-08-24T03:47:25.725Z,95.81
2016-08-24T03:48:32.058Z,95.77
2016-08-24T03:49:19.229Z,95.80
2016-08-24T03:51:41.725Z,95.60
2016-08-24T03:52:38.391Z,95.64
2016-08-24T03:53:31.698Z,95.37
2016-08-24T03:54:33.515Z,95.35
2016-08-24T03:55:26.319Z,95.43
2016-08-24T03:56:46.441Z,95.33
2016-08-24T03:57:33.207Z,95.67
2016-08-24T03:58:52.214Z,95.78
2016-08-24T03:59:52.747Z,96.08
2016-08-24T04:00:24.996Z,96.35
2016-08-24T04:01:35.180Z,96.03
2016-08-24T04:02:31.588Z,95.86
2016-08-24T04:03:34.935Z,95.82
2016-08-24T04:05:30.126Z,96.00
2016-08-24T04:06:37.917Z,95.82
2016-08-24T04:08:28.076Z,96.37
2016-08-24T04:09:29.262Z,96.48
2016-08-24T04:10:28.051Z,96.51
2016-08-24T04:11:34.498Z,96.16
2016-08-24T04:12:36.954Z,96.01
2016-08-24T04:13:33.271Z,95.97
2016-08-24T04:15:45.073Z,96.50
2016-08-24T04:16:46.122Z,96.83
2016-08-24T04:17:27.269Z,96.98
2016-08-24T04:18:23.943Z,97.08
2016-08-24T04:19:35.181Z,97.20
2016-08-24T04:20:38.284Z,96.80
2016-08-24T04:21:20.735Z,96.77
2016-08-24T04:22:38.873Z,96.73
2016-08-24T04:23:25.977Z,96.53
2016-08-24T04:24:47.162Z,96.30
2016-08-24T04:26:43.075Z,96.05
2016-08-24T04:27:34.880Z,95.91
2016-08-24T04:28:33.891Z,95.82
2016-08-24T04:29:27.180Z,95.92
2016-08-24T04:30:41.815Z,95.78
2016-08-24T04:31:32.663Z,95.55
2016-08-24T04:32:30.779Z,95.78
2016-08-24T04:33:35.581Z,95.95
2016-08-24T04:34:34.785Z,96.13
2016-08-24T04:35:25.019Z,95.98
2016-08-24T04:36:24.749Z,95.96
2016-08-24T04:37:26.026Z,96.18
2016-08-24T04:38:40.741Z,96.26
2016-08-24T04:39:28.425Z,96.81
2016-08-24T04:40:36.758Z,96.39
2016-08-24T04:41:32.910Z,96.36
2016-08-24T04:42:40.661Z,96.75
2016-08-24T04:43:32.609Z,96.52
2016-08-24T04:44:27.139Z,96.18
2016-08-24T04:45:46.051Z,96.76
2016-08-24T04:46:34.420Z,96.74
2016-08-24T04:47:21.466Z,96.48
2016-08-24T04:48:32.599Z,96.90
2016-08-24T04:49:36.296Z,96.62
2016-08-24T04:50:26.143Z,96.61
2016-08-24T04:51:37.643Z,96.48
2016-08-24T04:52:57.433Z,96.25
2016-08-24T04:53:25.144Z,96.12
2016-08-24T04:54:25.289Z,95.78
2016-08-24T04:55:42.053Z,95.80
2016-08-24T04:56:39.844Z,95.90
2016-08-24T04:57:34.604Z,95.79
2016-08-24T04:58:34.087Z,95.82
2016-08-24T04:59:32.588Z,95.78
2016-08-24T05:00:24.852Z,95.93
2016-08-24T05:01:24.274Z,96.21
2016-08-24T05:03:34.441Z,96.38
2016-08-24T05:04:30.287Z,96.86
2016-08-24T05:05:35.136Z,96.74
2016-08-24T05:06:24.198Z,96.80
2016-08-24T05:07:28.359Z,96.93
2016-08-24T05:08:32.569Z,96.83
2016-08-24T05:10:27.386Z,97.13
2016-08-24T05:11:32.047Z,97.00
2016-08-24T05:12:36.891Z,96.91
2016-08-24T05:13:22.881Z,96.99
2016-08-24T05:14:35.130Z,96.84
2016-08-24T05:15:20.582Z,96.89
2016-08-24T05:16:28.319Z,97.01
2016-08-24T05:17:35.385Z,97.37
2016-08-24T05:18:32.868Z,97.26
2016-08-24T05:20:38.861Z,97.67
2016-08-24T05:21:24.523Z,97.83
2016-08-24T05:22:32.454Z,97.44
2016-08-24T05:23:34.670Z,97.58
2016-08-24T05:24:27.846Z,97.51
2016-08-24T05:26:32.573Z,97.62
2016-08-24T05:27:45.068Z,97.65
2016-08-24T05:28:34.169Z,96.38
2016-08-24T05:29:28.045Z,96.43
2016-08-24T05:30:25.398Z,96.27
2016-08-24T05:31:39.949Z,96.97
2016-08-24T05:32:31.971Z,94.08
2016-08-24T05:33:28.895Z,91.88
2016-08-24T05:34:29.471Z,91.22
2016-08-24T05:35:31.782Z,91.05
2016-08-24T05:36:45.894Z,90.47
2016-08-24T05:37:46.679Z,92.37
2016-08-24T05:38:34.162Z,93.67
2016-08-24T05:39:28.019Z,93.40
2016-08-24T05:41:33.175Z,93.94
2016-08-24T05:42:34.788Z,92.65
2016-08-24T05:43:24.248Z,93.78
2016-08-24T05:44:24.726Z,94.04
2016-08-24T05:45:26.079Z,94.71
2016-08-24T05:46:27.233Z,92.78
2016-08-24T05:47:49.925Z,91.50
2016-08-24T05:48:25.082Z,91.44
2016-08-24T05:49:32.834Z,93.39
2016-08-24T05:50:32.604Z,93.24
2016-08-24T05:51:28.257Z,94.07
2016-08-24T05:52:28.016Z,93.36
2016-08-24T05:53:24.638Z,90.83
2016-08-24T05:54:31.376Z,90.38
2016-08-24T05:55:24.160Z,90.30
2016-08-24T05:56:33.227Z,90.84
2016-08-24T05:57:24.834Z,90.74
2016-08-24T05:58:23.582Z,85.27
2016-08-24T05:59:24.773Z,86.61
2016-08-24T06:00:34.561Z,86.87
2016-08-24T06:01:56.881Z,87.00
2016-08-24T06:02:34.258Z,87.38
2016-08-24T06:03:29.152Z,86.66
2016-08-24T06:04:36.010Z,85.62
2016-08-24T06:05:34.848Z,86.16
2016-08-24T06:06:41.777Z,83.22
2016-08-24T06:07:39.125Z,85.89
2016-08-24T06:08:37.595Z,84.87
2016-08-24T06:09:33.824Z,83.65
2016-08-24T06:10:34.492Z,85.17
2016-08-24T06:11:34.928Z,86.56
2016-08-24T06:12:34.982Z,86.58
2016-08-24T06:13:45.985Z,85.60
2016-08-24T06:14:34.865Z,86.54
2016-08-24T06:15:33.531Z,86.74
2016-08-24T06:16:40.070Z,85.94
2016-08-24T06:17:33.403Z,87.23
2016-08-24T06:18:24.429Z,88.17
2016-08-24T06:19:25.918Z,88.99
2016-08-24T06:20:34.871Z,89.60
2016-08-24T06:21:41.360Z,90.44
2016-08-24T06:22:22.086Z,90.82
2016-08-24T06:23:31.221Z,91.33
2016-08-24T06:24:27.961Z,91.40
2016-08-24T06:25:20.260Z,91.72
2016-08-24T06:26:24.148Z,91.73
2016-08-24T06:27:29.338Z,91.83
2016-08-24T06:28:39.926Z,92.12
2016-08-24T06:29:19.693Z,92.30
2016-08-24T06:30:32.278Z,92.28
2016-08-24T06:31:51.424Z,92.15
2016-08-24T06:32:41.171Z,92.51
2016-08-24T06:33:27.820Z,92.67
2016-08-24T06:34:23.634Z,92.59
2016-08-24T06:35:34.413Z,92.10
2016-08-24T06:37:27.539Z,92.14
2016-08-24T06:38:28.167Z,91.60
2016-08-24T06:39:25.040Z,91.31
2016-08-24T06:41:27.811Z,91.29
2016-08-24T06:42:26.309Z,91.30
2016-08-24T06:43:25.911Z,91.13
2016-08-24T06:44:30.992Z,91.82
2016-08-24T06:45:33.183Z,91.98
2016-08-24T06:46:40.335Z,91.85
2016-08-24T06:47:29.063Z,91.75
2016-08-24T06:49:34.871Z,91.78
2016-08-24T06:50:26.956Z,91.76
2016-08-24T06:51:24.087Z,91.60
2016-08-24T06:52:32.618Z,91.76
2016-08-24T06:53:40.516Z,91.82
2016-08-24T06:54:34.315Z,91.90
2016-08-24T06:55:34.073Z,91.82
2016-08-24T06:56:39.669Z,91.64
2016-08-24T06:57:44.569Z,91.57
2016-08-24T06:58:36.988Z,91.01
2016-08-24T06:59:27.592Z,90.88
2016-08-24T07:00:34.568Z,90.65
2016-08-24T07:01:29.200Z,90.53
2016-08-24T07:02:40.238Z,90.81
2016-08-24T07:03:28.997Z,90.79
2016-08-24T07:04:37.253Z,90.65
2016-08-24T07:06:53.890Z,89.72
2016-08-24T07:07:40.224Z,90.05
2016-08-24T07:08:27.640Z,90.01
2016-08-24T07:09:35.952Z,89.70
2016-08-24T07:10:33.141Z,90.14
2016-08-24T07:12:35.767Z,89.25
2016-08-24T07:13:25.100Z,89.16
2016-08-24T07:14:40.325Z,89.73
2016-08-24T07:16:34.403Z,89.48
2016-08-24T07:17:26.880Z,89.28
2016-08-24T07:18:33.376Z,88.87
2016-08-24T07:19:31.192Z,88.73
2016-08-24T07:20:30.317Z,88.64
2016-08-24T07:21:35.290Z,87.78
2016-08-24T07:22:34.526Z,87.66
2016-08-24T07:23:34.751Z,88.07
2016-08-24T07:24:43.772Z,87.98
2016-08-24T07:25:25.324Z,87.16
2016-08-24T07:26:33.971Z,87.03
2016-08-24T07:28:30.392Z,87.09
2016-08-24T07:29:24.734Z,86.89
2016-08-24T07:30:34.915Z,86.93
2016-08-24T07:31:31.042Z,87.17
2016-08-24T07:32:36.579Z,86.96
2016-08-24T07:33:26.206Z,86.22
2016-08-24T07:34:34.504Z,86.28
2016-08-24T07:35:24.614Z,86.17
2016-08-24T07:36:24.700Z,85.33
2016-08-24T07:37:40.767Z,85.64
2016-08-24T07:38:27.229Z,85.76
2016-08-24T07:39:24.708Z,85.23
2016-08-24T07:40:23.770Z,84.75
2016-08-24T07:41:28.456Z,84.56
2016-08-24T07:42:40.659Z,83.89
2016-08-24T07:44:23.167Z,84.54
2016-08-24T07:45:25.524Z,84.15
2016-08-24T07:46:52.369Z,84.34
2016-08-24T07:47:32.379Z,84.56
2016-08-24T07:50:23.406Z,83.65
2016-08-24T07:51:30.594Z,83.15
2016-08-24T07:55:34.126Z,82.97
2016-08-24T07:56:33.140Z,82.13
2016-08-24T07:57:37.192Z,81.38
2016-08-24T07:58:18.521Z,81.18
2016-08-24T07:59:40.480Z,81.35
2016-08-24T08:01:35.234Z,78.80
2016-08-24T08:02:27.925Z,78.77
2016-08-24T08:03:18.261Z,79.23
2016-08-24T08:04:32.400Z,79.46
2016-08-24T08:05:40.170Z,80.19
2016-08-24T08:06:36.117Z,79.92
2016-08-24T08:07:25.086Z,78.89
2016-08-24T08:08:25.503Z,78.48
2016-08-24T08:09:36.540Z,78.04
2016-08-24T08:10:37.497Z,77.50
2016-08-24T08:11:38.506Z,76.55
2016-08-24T08:12:25.860Z,76.55
2016-08-24T08:13:39.721Z,76.10
2016-08-24T08:14:32.244Z,75.55
2016-08-24T08:15:32.353Z,75.73
2016-08-24T08:16:34.699Z,75.23
2016-08-24T08:17:32.821Z,75.43
2016-08-24T08:18:39.427Z,75.63
2016-08-24T08:19:33.388Z,75.27
2016-08-24T08:20:26.941Z,75.34
2016-08-24T08:21:39.953Z,75.27
2016-08-24T08:22:29.724Z,74.60
2016-08-24T08:23:24.635Z,74.34
2016-08-24T08:24:24.899Z,75.35
2016-08-24T08:25:24.778Z,75.56
2016-08-24T08:26:49.723Z,75.20
2016-08-24T08:27:34.979Z,74.60
2016-08-24T08:28:49.442Z,73.87
2016-08-24T08:29:25.251Z,73.32
2016-08-24T08:30:43.823Z,72.67
2016-08-24T08:33:25.868Z,73.40
2016-08-24T08:34:41.278Z,72.94
2016-08-24T08:35:32.459Z,73.28
2016-08-24T08:36:27.971Z,72.50
2016-08-24T08:37:32.529Z,72.27
2016-08-24T08:38:31.652Z,72.66
2016-08-24T08:39:34.531Z,72.80
2016-08-24T08:40:41.113Z,72.72
2016-08-24T08:41:30.560Z,72.35
2016-08-24T08:42:25.249Z,72.55
2016-08-24T08:44:33.184Z,72.18
2016-08-24T08:45:33.432Z,71.94
2016-08-24T08:47:29.643Z,72.18
2016-08-24T08:48:37.423Z,70.82
2016-08-24T08:49:37.647Z,71.69
2016-08-24T08:50:34.660Z,72.00
2016-08-24T08:51:22.886Z,71.41
2016-08-24T08:52:26.982Z,71.45
2016-08-24T08:53:28.800Z,71.60
2016-08-24T08:54:37.873Z,72.04
2016-08-24T08:55:24.006Z,70.89
2016-08-24T08:56:22.488Z,71.42
2016-08-24T08:57:27.667Z,69.86
2016-08-24T08:58:32.182Z,69.82
2016-08-24T09:00:25.043Z,70.08
2016-08-24T09:01:32.631Z,69.89
2016-08-24T09:03:44.849Z,69.94
2016-08-24T09:04:45.243Z,68.63
2016-08-24T09:05:31.248Z,69.33
2016-08-24T09:06:39.857Z,69.49
2016-08-24T09:07:36.372Z,70.31
2016-08-24T09:08:24.280Z,70.60
2016-08-24T09:09:20.020Z,70.48
2016-08-24T09:10:30.586Z,70.02
2016-08-24T09:11:23.985Z,70.33
2016-08-24T09:12:43.238Z,71.69
2016-08-24T09:14:34.004Z,69.93
2016-08-24T09:16:24.905Z,71.05
2016-08-24T09:17:26.775Z,70.73
2016-08-24T09:18:32.807Z,70.71
2016-08-24T09:19:24.814Z,70.22
2016-08-24T09:21:20.196Z,70.55
2016-08-24T09:22:27.195Z,70.40
2016-08-24T09:23:40.527Z,69.78
2016-08-24T09:24:23.307Z,69.75
2016-08-24T09:25:38.081Z,69.73
2016-08-24T09:26:36.083Z,71.12
2016-08-24T09:27:37.081Z,70.97
2016-08-24T09:28:32.007Z,70.85
2016-08-24T09:29:26.573Z,70.57
2016-08-24T09:30:19.387Z,70.78
2016-08-24T09:31:24.759Z,70.03
2016-08-24T09:32:32.830Z,69.01
2016-08-24T09:34:36.522Z,66.97
2016-08-24T09:35:25.915Z,67.69
2016-08-24T09:36:30.662Z,67.67
2016-08-24T09:37:35.215Z,65.92
2016-08-24T09:39:45.711Z,66.62
2016-08-24T09:40:45.185Z,66.56
2016-08-24T09:41:33.694Z,66.60
2016-08-24T09:42:25.457Z,67.31
2016-08-24T09:43:25.491Z,68.27
2016-08-24T09:45:34.887Z,67.63
2016-08-24T09:46:24.729Z,67.89
2016-08-24T09:48:28.617Z,67.60
2016-08-24T09:49:33.434Z,68.17
2016-08-24T09:50:25.044Z,68.85
2016-08-24T09:52:07.182Z,67.52
2016-08-24T09:52:23.986Z,67.62
2016-08-24T09:53:45.187Z,67.86
2016-08-24T09:54:32.811Z,68.23
2016-08-24T09:55:34.452Z,68.10
2016-08-24T09:56:18.785Z,67.32
2016-08-24T09:57:28.406Z,66.59
2016-08-24T09:58:32.672Z,65.24
2016-08-24T10:00:36.876Z,65.13
2016-08-24T10:01:18.487Z,64.37
2016-08-24T10:02:38.926Z,62.75
2016-08-24T10:04:35.359Z,63.65
2016-08-24T10:06:38.987Z,64.84
2016-08-24T10:08:38.065Z,65.43
2016-08-24T10:09:36.218Z,64.68
2016-08-24T10:10:39.679Z,66.91
2016-08-24T10:11:39.955Z,65.85
2016-08-24T10:12:27.771Z,65.09
2016-08-24T10:13:27.463Z,64.70
2016-08-24T10:14:34.592Z,64.54
2016-08-24T10:15:34.690Z,64.77
2016-08-24T10:16:25.568Z,64.97
2016-08-24T10:17:24.705Z,66.96
2016-08-24T10:18:41.096Z,65.20
2016-08-24T10:19:24.946Z,65.63
2016-08-24T10:22:25.414Z,64.12
2016-08-24T10:23:19.563Z,63.99
2016-08-24T10:24:25.674Z,63.99
2016-08-24T10:25:28.370Z,64.57
2016-08-24T10:27:45.672Z,65.26
2016-08-24T10:28:27.827Z,63.06
2016-08-24T10:30:22.801Z,64.95
2016-08-24T10:32:03.844Z,64.11
2016-08-24T10:32:40.829Z,64.64
2016-08-24T10:33:26.408Z,63.72
2016-08-24T10:34:30.833Z,64.37
2016-08-24T10:35:34.246Z,64.97
2016-08-24T10:36:32.174Z,62.16
2016-08-24T10:37:23.801Z,62.22
2016-08-24T10:39:41.261Z,64.82
2016-08-24T10:41:31.677Z,64.35
2016-08-24T10:42:40.009Z,63.47
2016-08-24T10:44:26.373Z,62.55
2016-08-24T10:46:45.237Z,66.45
2016-08-24T10:47:24.893Z,64.16
2016-08-24T10:51:25.595Z,64.75
2016-08-24T10:52:26.815Z,65.40
2016-08-24T10:53:22.862Z,66.78
2016-08-24T10:54:34.344Z,64.48
2016-08-24T10:55:29.545Z,65.65
2016-08-24T10:56:26.158Z,64.17
2016-08-24T10:57:22.799Z,64.26
2016-08-24T10:58:25.617Z,64.18
2016-08-24T10:59:22.991Z,64.64
2016-08-24T11:00:35.228Z,65.03
2016-08-24T11:01:40.557Z,63.95
2016-08-24T11:03:31.409Z,64.03
2016-08-24T11:04:29.594Z,62.61
2016-08-24T11:05:28.093Z,63.55
2016-08-24T11:06:25.434Z,63.56
2016-08-24T11:07:41.616Z,63.59
2016-08-24T11:08:35.147Z,64.89
2016-08-24T11:09:39.404Z,64.21
2016-08-24T11:10:40.863Z,63.22
2016-08-24T11:11:52.638Z,65.47
2016-08-24T11:12:35.439Z,65.49
2016-08-24T11:13:24.429Z,64.45
2016-08-24T11:14:41.714Z,62.55
2016-08-24T11:15:23.953Z,64.32
2016-08-24T11:16:37.138Z,62.34
2016-08-24T11:17:29.124Z,61.24
2016-08-24T11:18:26.080Z,61.22
2016-08-24T11:19:47.260Z,61.43
2016-08-24T11:20:24.366Z,61.37
2016-08-24T11:21:32.316Z,63.19
2016-08-24T11:22:24.622Z,64.77
2016-08-24T11:23:34.707Z,64.74
2016-08-24T11:24:24.765Z,65.52
2016-08-24T11:25:37.835Z,64.55
2016-08-24T11:26:28.275Z,65.61
2016-08-24T11:27:24.909Z,65.22
2016-08-24T11:28:34.258Z,65.07
2016-08-24T11:29:22.948Z,64.29
2016-08-24T11:30:27.168Z,63.61
2016-08-24T11:32:28.998Z,63.67
2016-08-24T11:33:31.152Z,63.66
2016-08-24T11:34:35.393Z,64.37
2016-08-24T11:35:38.276Z,63.17
2016-08-24T11:36:25.640Z,63.08
2016-08-24T11:37:35.068Z,63.07
2016-08-24T11:38:57.219Z,63.35
2016-08-24T11:39:46.343Z,63.74
2016-08-24T11:40:47.746Z,62.72
2016-08-24T11:41:28.641Z,62.47
2016-08-24T11:42:26.312Z,62.58
2016-08-24T11:43:33.332Z,62.93
2016-08-24T11:44:41.228Z,63.83
2016-08-24T11:45:25.904Z,61.53
2016-08-24T11:46:19.176Z,62.23
2016-08-24T11:47:32.032Z,62.79
2016-08-24T11:48:30.332Z,61.53
2016-08-24T11:49:38.794Z,61.81
2016-08-24T11:50:24.018Z,63.13
2016-08-24T11:51:38.215Z,60.95
2016-08-24T11:52:33.438Z,61.54
2016-08-24T11:53:35.898Z,60.71
2016-08-24T11:54:28.121Z,61.24
2016-08-24T11:56:25.757Z,63.26
2016-08-24T11:57:32.932Z,63.21
2016-08-24T11:58:52.629Z,63.42
2016-08-24T11:59:31.985Z,61.51
2016-08-24T12:00:31.668Z,61.33
2016-08-24T12:01:47.740Z,62.21
2016-08-24T12:02:33.702Z,62.94
2016-08-24T12:03:25.887Z,62.95
2016-08-24T12:04:35.499Z,60.39
2016-08-24T12:05:34.046Z,60.98
2016-08-24T12:06:34.741Z,62.03
2016-08-24T12:07:42.058Z,60.83
2016-08-24T12:08:48.998Z,60.94
2016-08-24T12:09:22.271Z,62.92
2016-08-24T12:10:34.094Z,61.83
2016-08-24T12:11:19.902Z,62.17
2016-08-24T12:12:33.897Z,62.32
2016-08-24T12:13:35.498Z,62.61
2016-08-24T12:14:33.521Z,62.22
2016-08-24T12:15:27.666Z,62.00
2016-08-24T12:16:33.860Z,59.95
2016-08-24T12:17:41.141Z,60.89
2016-08-24T12:18:34.523Z,60.71
2016-08-24T12:19:24.024Z,61.05
2016-08-24T12:20:43.349Z,60.62
2016-08-24T12:21:27.622Z,61.01
2016-08-24T12:22:22.121Z,61.87
2016-08-24T12:24:27.995Z,61.11
2016-08-24T12:25:21.245Z,61.85
2016-08-24T12:26:35.206Z,60.49
2016-08-24T12:27:35.543Z,61.13
2016-08-24T12:28:25.955Z,62.17
2016-08-24T12:29:40.418Z,62.54
2016-08-24T12:30:40.797Z,59.94
2016-08-24T12:31:28.158Z,60.42
2016-08-24T12:32:25.097Z,61.48
2016-08-24T12:33:26.347Z,61.28
2016-08-24T12:34:44.176Z,62.27
2016-08-24T12:35:33.130Z,62.86
2016-08-24T12:36:27.743Z,62.43
2016-08-24T12:37:41.652Z,63.51
2016-08-24T12:38:34.081Z,64.24
2016-08-24T12:40:49.612Z,63.47
2016-08-24T12:41:41.697Z,61.93
2016-08-24T12:42:30.018Z,62.63
2016-08-24T12:43:20.097Z,61.71
2016-08-24T12:44:35.043Z,61.39
2016-08-24T12:45:36.411Z,61.24
2016-08-24T12:46:34.901Z,58.90
2016-08-24T12:47:27.685Z,58.66
2016-08-24T12:48:33.433Z,58.90
2016-08-24T12:49:34.762Z,60.90
2016-08-24T12:50:32.447Z,60.48
2016-08-24T12:51:37.950Z,60.35
2016-08-24T12:52:33.551Z,59.50
2016-08-24T12:53:25.541Z,59.57
2016-08-24T12:54:35.734Z,59.56
2016-08-24T12:56:35.082Z,60.23
2016-08-24T12:57:34.367Z,60.61
2016-08-24T12:58:47.118Z,60.45
2016-08-24T12:59:43.912Z,59.99
2016-08-24T13:00:40.216Z,60.26
2016-08-24T13:01:28.360Z,60.04
2016-08-24T13:02:20.412Z,58.92
2016-08-24T13:03:29.504Z,59.87
2016-08-24T13:04:35.719Z,57.96
2016-08-24T13:05:45.922Z,57.34
2016-08-24T13:06:24.075Z,57.39
2016-08-24T13:07:45.556Z,58.06
2016-08-24T13:08:27.440Z,58.48
2016-08-24T13:09:35.044Z,57.33
2016-08-24T13:10:35.335Z,57.62
2016-08-24T13:13:45.402Z,57.86
2016-08-24T13:15:39.420Z,57.18
2016-08-24T13:16:23.436Z,56.05
2016-08-24T13:17:52.119Z,53.94
2016-08-24T13:18:32.620Z,54.45
2016-08-24T13:19:28.317Z,53.08
2016-08-24T13:20:24.629Z,53.37
2016-08-24T13:21:26.741Z,53.37
2016-08-24T13:22:37.501Z,53.14
2016-08-24T13:23:44.375Z,52.99
2016-08-24T13:24:47.501Z,53.26
2016-08-24T13:25:26.077Z,53.33
2016-08-24T13:26:36.334Z,52.24
2016-08-24T13:27:21.808Z,53.07
2016-08-24T13:28:32.440Z,52.27
2016-08-24T13:29:41.411Z,52.60
2016-08-24T13:30:45.164Z,52.42
2016-08-24T13:31:39.545Z,52.40
2016-08-24T13:32:36.654Z,52.66
2016-08-24T13:33:39.299Z,53.10
2016-08-24T13:34:54.722Z,52.87
2016-08-24T13:36:24.936Z,52.34
2016-08-24T13:37:35.053Z,52.26
2016-08-24T13:38:41.103Z,52.62
2016-08-24T13:39:34.149Z,52.48
2016-08-24T13:40:25.278Z,53.68
2016-08-24T13:41:33.988Z,53.72
2016-08-24T13:42:25.700Z,53.31
2016-08-24T13:44:05.939Z,52.70
2016-08-24T13:44:34.766Z,52.93
2016-08-24T13:45:52.804Z,53.75
2016-08-24T13:46:41.608Z,53.34
2016-08-24T13:47:26.895Z,52.63
2016-08-24T13:48:25.817Z,52.00
2016-08-24T13:49:28.840Z,51.96
2016-08-24T13:50:26.542Z,51.24
2016-08-24T13:51:38.185Z,52.11
2016-08-24T13:52:26.335Z,52.62
2016-08-24T13:53:47.667Z,53.37
2016-08-24T13:54:34.814Z,53.98
2016-08-24T13:55:41.016Z,53.15
2016-08-24T13:57:32.691Z,52.53
2016-08-24T13:58:40.517Z,52.84
2016-08-24T13:59:35.801Z,52.92
2016-08-24T14:00:37.283Z,53.26
2016-08-24T14:01:26.400Z,54.40
2016-08-24T14:02:33.934Z,54.06
2016-08-24T14:03:30.288Z,54.23
2016-08-24T14:04:25.778Z,53.92
2016-08-24T14:05:34.939Z,53.89
2016-08-24T14:06:32.055Z,53.77
2016-08-24T14:07:24.003Z,53.70
2016-08-24T14:08:26.660Z,53.52
2016-08-24T14:09:35.158Z,53.74
2016-08-24T14:10:27.708Z,53.92